Time;durP1;ratioP1;P1;durP2;ratioP2;P2;SDS_P1;SDS_P2;PMS_P1;PMS_P2;Temp;Humidity;BMP_temperature;BMP_pressure;BME280_temperature;BME280_humidity;BME280_pressure;Samples;Min_cycle;Max_cycle;Signal;HPM_P1;HPM_P2
2021/11/18 00:00:20;;;;;;;12.65;8.30;;;5.50;85.00;;;;;;5078511;28;20098;-77
2021/11/18 00:02:46;;;;;;;13.98;7.85;;;5.50;85.00;;;;;;5074456;28;20046;-75
2021/11/18 00:05:14;;;;;;;13.70;8.07;;;5.50;85.20;;;;;;5074666;28;20532;-74
2021/11/18 00:07:43;;;;;;;12.73;8.70;;;5.50;85.00;;;;;;5082352;28;20016;-77
2021/11/18 00:10:11;;;;;;;11.07;7.35;;;5.60;85.00;;;;;;5074242;28;20024;-76
2021/11/18 00:12:37;;;;;;;14.60;8.10;;;5.60;84.80;;;;;;5074351;28;20065;-76
2021/11/18 00:15:04;;;;;;;12.15;7.57;;;5.60;84.60;;;;;;5077234;28;20091;-76
2021/11/18 00:17:29;;;;;;;11.45;7.25;;;5.60;84.70;;;;;;5071897;28;20036;-75
2021/11/18 00:19:55;;;;;;;11.52;7.63;;;5.60;84.70;;;;;;5071846;28;20400;-75
2021/11/18 00:22:20;;;;;;;11.18;7.40;;;5.50;84.70;;;;;;5072824;28;20028;-76
2021/11/18 00:24:47;;;;;;;11.13;7.20;;;5.60;84.50;;;;;;5072700;28;20028;-76
2021/11/18 00:27:13;;;;;;;10.93;7.45;;;5.60;84.40;;;;;;5075150;28;20035;-77
2021/11/18 00:29:38;;;;;;;11.57;7.38;;;5.60;84.50;;;;;;5076694;28;20032;-77
2021/11/18 00:32:04;;;;;;;11.38;7.57;;;5.50;84.70;;;;;;5076694;28;20504;-78
2021/11/18 00:34:30;;;;;;;13.30;8.13;;;5.50;84.80;;;;;;5076745;28;20465;-77
2021/11/18 00:36:55;;;;;;;8.77;6.50;;;5.50;85.00;;;;;;5076695;28;20028;-77
2021/11/18 00:39:21;;;;;;;11.23;7.00;;;5.50;85.10;;;;;;5076675;28;20025;-79
2021/11/18 00:41:47;;;;;;;9.27;6.25;;;5.60;85.20;;;;;;5076524;28;20021;-78
2021/11/18 00:44:12;;;;;;;11.48;6.82;;;5.60;85.30;;;;;;5075231;28;20114;-77
2021/11/18 00:46:38;;;;;;;10.48;6.25;;;5.50;85.20;;;;;;5076327;28;20017;-76
2021/11/18 00:49:04;;;;;;;9.57;6.53;;;5.60;85.20;;;;;;5076156;28;20105;-76
2021/11/18 00:51:30;;;;;;;8.18;5.80;;;5.60;85.20;;;;;;5076291;28;20099;-76
2021/11/18 00:53:59;;;;;;;9.13;5.90;;;5.60;85.20;;;;;;5076158;28;20115;-76
2021/11/18 00:56:25;;;;;;;10.88;6.55;;;5.60;84.90;;;;;;5076252;28;20028;-76
2021/11/18 00:58:53;;;;;;;8.98;5.63;;;5.70;85.00;;;;;;5076154;28;20037;-76
2021/11/18 01:01:22;;;;;;;9.80;6.55;;;5.70;84.90;;;;;;5076056;28;20087;-76
2021/11/18 01:03:48;;;;;;;10.13;6.75;;;5.70;84.60;;;;;;5075818;28;20044;-76
2021/11/18 01:06:14;;;;;;;12.27;6.93;;;5.70;84.60;;;;;;5075888;28;20048;-76
2021/11/18 01:08:40;;;;;;;10.18;6.50;;;5.80;84.70;;;;;;5075957;28;20020;-76
2021/11/18 01:11:15;;;;;;;8.93;6.38;;;5.80;84.60;;;;;;5075950;28;20035;-76
2021/11/18 01:13:42;;;;;;;10.48;7.10;;;5.80;84.60;;;;;;5075938;28;20066;-76
2021/11/18 01:16:09;;;;;;;10.38;7.15;;;5.80;84.70;;;;;;5075840;28;20024;-76
2021/11/18 01:18:35;;;;;;;11.45;6.88;;;5.90;84.80;;;;;;5076193;28;20098;-76
2021/11/18 01:21:02;;;;;;;10.93;6.68;;;5.90;84.80;;;;;;5074461;28;20021;-76
2021/11/18 01:23:33;;;;;;;11.52;7.63;;;5.90;84.70;;;;;;5075631;28;20480;-76
2021/11/18 01:25:58;;;;;;;11.32;7.22;;;5.90;84.80;;;;;;5075784;28;20096;-75
2021/11/18 01:28:25;;;;;;;12.23;7.57;;;5.90;84.90;;;;;;5075409;28;20079;-76
2021/11/18 01:30:51;;;;;;;12.18;8.00;;;5.90;85.00;;;;;;5075254;28;20127;-75
2021/11/18 01:33:17;;;;;;;13.50;8.75;;;5.90;85.00;;;;;;5075442;28;20020;-75
2021/11/18 01:35:45;;;;;;;11.90;7.40;;;5.90;85.10;;;;;;5075446;28;20070;-75
2021/11/18 01:38:12;;;;;;;14.00;8.68;;;5.90;85.00;;;;;;5075325;28;20016;-74
2021/11/18 01:40:43;;;;;;;12.13;7.78;;;5.90;85.00;;;;;;5075401;28;20024;-75
2021/11/18 01:43:10;;;;;;;12.63;7.93;;;6.00;85.00;;;;;;5075437;28;20106;-74
2021/11/18 01:45:38;;;;;;;13.45;8.15;;;6.00;85.00;;;;;;5075259;28;20028;-76
2021/11/18 01:48:04;;;;;;;13.80;8.57;;;6.00;85.00;;;;;;5075228;28;20025;-78
2021/11/18 01:50:34;;;;;;;14.30;9.18;;;6.10;85.00;;;;;;5075193;28;20090;-78
2021/11/18 01:53:04;;;;;;;15.50;9.05;;;6.00;84.70;;;;;;5075337;28;20392;-77
2021/11/18 01:55:30;;;;;;;15.73;9.57;;;6.10;84.60;;;;;;5075276;28;20033;-77
2021/11/18 01:57:56;;;;;;;12.43;8.48;;;6.10;84.50;;;;;;5075122;28;20078;-76
2021/11/18 02:00:36;;;;;;;13.45;8.45;;;6.10;84.30;;;;;;5075121;28;20119;-77
2021/11/18 02:03:02;;;;;;;14.25;8.20;;;6.10;84.10;;;;;;5076777;28;20146;-78
2021/11/18 02:05:33;;;;;;;13.23;8.07;;;6.00;84.20;;;;;;5075303;28;20070;-78
2021/11/18 02:07:59;;;;;;;13.05;7.70;;;6.00;85.00;;;;;;5075040;28;20021;-78
2021/11/18 02:10:30;;;;;;;11.60;7.53;;;6.00;84.20;;;;;;5074715;28;20388;-78
2021/11/18 02:13:00;;;;;;;12.75;7.68;;;6.00;84.20;;;;;;5074751;28;20024;-79
2021/11/18 02:15:36;;;;;;;13.82;8.52;;;6.00;84.50;;;;;;5074963;28;20451;-77
2021/11/18 02:18:10;;;;;;;15.20;8.07;;;6.00;84.70;;;;;;5074993;28;20464;-77
2021/11/18 02:20:36;;;;;;;13.38;7.50;;;6.00;84.70;;;;;;5075126;28;20392;-77
2021/11/18 02:23:10;;;;;;;11.85;7.60;;;6.00;84.90;;;;;;5075589;28;20025;-77
2021/11/18 02:25:36;;;;;;;11.95;7.30;;;6.10;85.20;;;;;;5084375;28;20059;-76
2021/11/18 02:28:01;;;;;;;13.13;7.68;;;6.10;85.20;;;;;;5087227;28;20021;-77
2021/11/18 02:30:28;;;;;;;9.70;6.68;;;6.10;85.00;;;;;;5074595;28;20033;-77
2021/11/18 02:32:55;;;;;;;12.05;6.97;;;6.10;84.80;;;;;;5074444;28;20035;-77
2021/11/18 02:35:30;;;;;;;13.05;7.25;;;6.10;84.90;;;;;;5074553;28;20035;-77
2021/11/18 02:37:57;;;;;;;11.75;7.40;;;6.10;84.90;;;;;;5074348;28;20027;-77
2021/11/18 02:40:24;;;;;;;11.52;6.95;;;6.10;84.90;;;;;;5074215;28;20473;-78
2021/11/18 02:42:51;;;;;;;12.80;8.55;;;6.10;84.90;;;;;;5074112;28;20031;-77
2021/11/18 02:45:21;;;;;;;11.43;7.40;;;6.10;85.00;;;;;;5074135;28;20028;-77
2021/11/18 02:47:46;;;;;;;14.45;8.55;;;6.20;85.00;;;;;;5073902;28;20024;-77
2021/11/18 02:50:19;;;;;;;11.68;7.60;;;6.20;85.00;;;;;;5073443;28;20087;-78
2021/11/18 02:52:46;;;;;;;10.55;7.65;;;6.20;85.20;;;;;;5074034;28;20021;-78
2021/11/18 02:55:15;;;;;;;12.98;8.23;;;6.20;85.20;;;;;;5073981;28;20035;-77
2021/11/18 02:57:41;;;;;;;13.38;7.20;;;6.10;85.30;;;;;;5073754;28;20056;-77
2021/11/18 03:00:12;;;;;;;11.32;7.50;;;6.10;85.40;;;;;;5073931;28;20079;-78
2021/11/18 03:02:38;;;;;;;11.85;7.85;;;6.10;85.30;;;;;;5073852;28;20040;-77
2021/11/18 03:05:06;;;;;;;12.40;7.57;;;6.10;85.20;;;;;;5073756;28;20025;-77
2021/11/18 03:07:33;;;;;;;13.13;7.25;;;6.20;85.20;;;;;;5073623;28;20133;-77
2021/11/18 03:09:59;;;;;;;10.60;6.45;;;6.10;85.30;;;;;;5072218;28;20048;-78
2021/11/18 03:12:25;;;;;;;12.13;7.90;;;6.20;85.20;;;;;;5073715;28;20029;-78
2021/11/18 03:14:50;;;;;;;12.98;7.20;;;6.10;85.30;;;;;;5073355;28;20028;-76
2021/11/18 03:17:16;;;;;;;12.02;7.60;;;6.20;85.50;;;;;;5073232;28;20024;-77
2021/11/18 03:19:42;;;;;;;13.48;8.52;;;6.20;85.70;;;;;;5073492;28;20058;-77
2021/11/18 03:22:08;;;;;;;12.60;7.22;;;6.20;85.90;;;;;;5072345;28;20067;-77
2021/11/18 03:24:33;;;;;;;10.80;7.70;;;6.20;86.10;;;;;;5073493;28;20024;-77
2021/11/18 03:26:59;;;;;;;14.38;8.02;;;6.10;86.50;;;;;;5073336;28;20025;-77
2021/11/18 03:29:26;;;;;;;10.95;7.28;;;6.10;86.80;;;;;;5071966;28;20029;-76
2021/11/18 03:31:52;;;;;;;13.88;7.60;;;6.20;87.10;;;;;;5073237;28;20031;-77
2021/11/18 03:34:20;;;;;;;12.63;7.03;;;6.10;87.10;;;;;;5073217;28;20025;-78
2021/11/18 03:36:47;;;;;;;13.68;7.85;;;6.10;87.40;;;;;;5073223;28;20028;-78
2021/11/18 03:39:13;;;;;;;13.13;8.02;;;6.10;87.30;;;;;;5072015;28;20032;-76
2021/11/18 03:41:43;;;;;;;13.13;8.35;;;6.10;87.40;;;;;;5073194;28;20051;-77
2021/11/18 03:44:10;;;;;;;12.88;7.97;;;6.10;87.50;;;;;;5073192;28;20123;-77
2021/11/18 03:46:40;;;;;;;16.05;9.35;;;6.10;87.60;;;;;;5073132;28;20025;-77
2021/11/18 03:49:08;;;;;;;16.00;8.73;;;6.00;87.60;;;;;;5072802;28;20052;-76
2021/11/18 03:51:34;;;;;;;14.35;8.23;;;6.10;87.80;;;;;;5073064;28;20484;-77
2021/11/18 03:54:02;;;;;;;13.15;9.07;;;6.10;87.60;;;;;;5072949;28;20021;-76
2021/11/18 03:56:34;;;;;;;15.10;9.63;;;6.10;87.70;;;;;;5073142;28;20028;-76
2021/11/18 03:59:01;;;;;;;12.98;8.52;;;6.10;88.40;;;;;;5073065;28;20016;-77
2021/11/18 04:01:27;;;;;;;14.82;8.98;;;6.10;87.50;;;;;;5072244;28;20496;-76
2021/11/18 04:03:54;;;;;;;15.27;9.20;;;6.10;87.50;;;;;;5072911;28;20028;-77
2021/11/18 04:06:21;;;;;;;15.65;10.05;;;6.10;87.40;;;;;;5072910;28;20020;-78
2021/11/18 04:08:47;;;;;;;14.90;9.55;;;6.10;87.30;;;;;;5072862;28;20016;-77
2021/11/18 04:11:12;;;;;;;14.13;8.80;;;6.10;87.40;;;;;;5072776;28;20032;-77
2021/11/18 04:13:38;;;;;;;13.73;9.10;;;6.10;87.50;;;;;;5072816;28;20074;-77
2021/11/18 04:16:06;;;;;;;13.27;9.20;;;6.10;87.60;;;;;;5072730;28;20032;-77
2021/11/18 04:18:32;;;;;;;15.73;9.48;;;6.10;87.70;;;;;;5072935;28;20043;-76
2021/11/18 04:20:57;;;;;;;15.65;8.65;;;6.10;87.70;;;;;;5073071;28;20468;-75
2021/11/18 04:23:25;;;;;;;14.02;9.40;;;6.20;87.60;;;;;;5073081;28;20032;-76
2021/11/18 04:25:51;;;;;;;13.88;8.90;;;6.10;87.60;;;;;;5072783;28;20016;-76
2021/11/18 04:28:18;;;;;;;17.50;10.43;;;6.20;87.50;;;;;;5072850;28;20028;-76
2021/11/18 04:30:48;;;;;;;16.13;9.50;;;6.20;87.40;;;;;;5072697;28;20056;-76
2021/11/18 04:33:14;;;;;;;18.55;10.18;;;6.20;87.50;;;;;;5072912;28;20028;-76
2021/11/18 04:35:40;;;;;;;16.35;9.90;;;6.20;87.60;;;;;;5072630;28;20028;-76
2021/11/18 04:38:06;;;;;;;16.38;10.13;;;6.20;87.60;;;;;;5072745;28;20032;-76
2021/11/18 04:40:33;;;;;;;14.80;9.60;;;6.20;87.60;;;;;;5072760;28;20158;-76
2021/11/18 04:43:01;;;;;;;13.23;8.70;;;6.20;87.60;;;;;;5072693;28;20021;-76
2021/11/18 04:45:26;;;;;;;14.55;8.95;;;6.10;87.70;;;;;;5075102;28;20040;-75
2021/11/18 04:47:52;;;;;;;15.55;9.73;;;6.10;87.90;;;;;;5072758;28;20205;-76
2021/11/18 04:50:21;;;;;;;15.82;10.25;;;6.10;88.10;;;;;;5072787;28;20101;-76
2021/11/18 04:52:46;;;;;;;18.38;10.48;;;6.10;88.10;;;;;;5080228;28;20021;-75
2021/11/18 04:55:15;;;;;;;18.23;10.73;;;6.20;88.20;;;;;;5073417;28;20024;-76
2021/11/18 04:57:41;;;;;;;17.20;10.23;;;6.10;88.30;;;;;;5079422;28;20025;-76
2021/11/18 05:00:11;;;;;;;20.95;11.18;;;6.10;88.40;;;;;;5092487;28;20059;-75
2021/11/18 05:02:37;;;;;;;35.55;19.20;;;6.10;88.80;;;;;;5087118;28;20024;-76
2021/11/18 05:05:05;;;;;;;64.07;31.40;;;6.10;89.20;;;;;;5080744;28;20032;-76
2021/11/18 05:07:31;;;;;;;90.80;43.72;;;6.10;89.30;;;;;;5075193;28;20572;-76
2021/11/18 05:09:56;;;;;;;80.63;39.08;;;6.00;89.10;;;;;;5075841;28;20064;-76
2021/11/18 05:12:23;;;;;;;69.07;34.38;;;6.10;89.40;;;;;;5076709;28;20021;-75
2021/11/18 05:14:49;;;;;;;59.55;30.58;;;6.10;89.40;;;;;;5077343;28;20035;-75
2021/11/18 05:17:14;;;;;;;40.90;21.98;;;6.10;89.80;;;;;;5077355;28;20044;-75
2021/11/18 05:19:40;;;;;;;42.10;20.25;;;6.10;89.50;;;;;;5076854;28;20035;-75
2021/11/18 05:22:06;;;;;;;33.33;17.27;;;6.00;89.50;;;;;;5076841;28;20021;-76
2021/11/18 05:24:32;;;;;;;26.45;14.82;;;6.00;89.60;;;;;;5076410;28;20021;-76
2021/11/18 05:26:58;;;;;;;25.83;14.55;;;6.00;89.60;;;;;;5075823;28;20158;-76
2021/11/18 05:29:23;;;;;;;24.48;13.98;;;6.00;89.60;;;;;;5076312;28;20075;-76
2021/11/18 05:31:49;;;;;;;26.65;14.38;;;6.00;89.60;;;;;;5076395;28;20021;-76
2021/11/18 05:34:15;;;;;;;25.35;14.65;;;6.10;89.90;;;;;;5076380;28;20031;-75
2021/11/18 05:36:40;;;;;;;24.05;13.70;;;6.10;89.90;;;;;;5076285;28;20032;-76
2021/11/18 05:39:06;;;;;;;24.40;13.43;;;6.00;89.70;;;;;;5075991;28;20078;-76
2021/11/18 05:41:31;;;;;;;21.85;11.75;;;6.00;89.50;;;;;;5075985;28;20031;-75
2021/11/18 05:44:02;;;;;;;21.88;12.75;;;6.00;89.50;;;;;;5074556;28;20059;-76
2021/11/18 05:46:29;;;;;;;19.00;11.98;;;6.10;89.60;;;;;;5075904;28;20027;-76
2021/11/18 05:48:54;;;;;;;19.98;11.23;;;6.00;89.50;;;;;;5075524;28;20127;-76
2021/11/18 05:51:20;;;;;;;20.55;12.15;;;6.00;90.30;;;;;;5076019;28;20107;-76
2021/11/18 05:53:48;;;;;;;18.35;12.13;;;6.00;89.50;;;;;;5075757;28;20028;-76
2021/11/18 05:56:17;;;;;;;14.57;9.77;;;6.10;89.50;;;;;;5075574;28;20036;-77
2021/11/18 05:58:44;;;;;;;20.40;10.88;;;6.10;89.40;;;;;;5075421;28;20033;-75
2021/11/18 06:01:11;;;;;;;16.70;10.05;;;6.10;89.50;;;;;;5075393;28;20012;-76
2021/11/18 06:03:38;;;;;;;16.45;10.68;;;6.10;89.50;;;;;;5075433;28;20031;-76
2021/11/18 06:06:05;;;;;;;16.67;10.55;;;6.10;90.20;;;;;;5075617;28;20017;-76
2021/11/18 06:08:32;;;;;;;17.95;11.07;;;6.10;89.40;;;;;;5075780;28;20060;-76
2021/11/18 06:10:58;;;;;;;20.35;12.23;;;6.20;89.50;;;;;;5080867;28;20029;-77
2021/11/18 06:13:24;;;;;;;22.75;11.93;;;6.20;89.30;;;;;;5085145;28;20036;-76
2021/11/18 06:15:50;;;;;;;25.58;12.55;;;6.20;89.20;;;;;;5077463;28;20156;-76
2021/11/18 06:18:15;;;;;;;18.48;11.60;;;6.20;89.20;;;;;;5075271;28;20422;-76
2021/11/18 06:20:42;;;;;;;19.02;11.25;;;6.20;89.20;;;;;;5074843;28;20099;-76
2021/11/18 06:23:09;;;;;;;16.88;10.35;;;6.30;89.30;;;;;;5072857;28;20036;-76
2021/11/18 06:25:35;;;;;;;19.60;11.20;;;6.30;89.10;;;;;;5074919;28;20025;-75
2021/11/18 06:28:01;;;;;;;17.35;10.15;;;6.30;89.00;;;;;;5074589;28;20028;-76
2021/11/18 06:30:32;;;;;;;22.25;12.73;;;6.30;89.00;;;;;;5074041;28;20365;-76
2021/11/18 06:32:57;;;;;;;20.00;12.40;;;6.30;89.00;;;;;;5074122;28;20038;-76
2021/11/18 06:35:23;;;;;;;19.73;11.82;;;6.20;88.90;;;;;;5074561;28;20094;-76
2021/11/18 06:37:49;;;;;;;18.42;10.60;;;6.20;89.00;;;;;;5074409;28;20029;-80
2021/11/18 06:40:17;;;;;;;18.10;10.63;;;6.20;89.10;;;;;;5074255;28;20020;-76
2021/11/18 06:42:44;;;;;;;16.00;10.07;;;6.20;89.10;;;;;;5074477;28;20027;-76
2021/11/18 06:45:12;;;;;;;15.98;10.00;;;6.20;89.00;;;;;;5073025;28;20418;-77
2021/11/18 06:47:38;;;;;;;16.05;10.35;;;6.20;89.00;;;;;;5074214;28;20032;-77
2021/11/18 06:50:04;;;;;;;18.13;10.13;;;6.20;89.10;;;;;;5074253;28;20036;-79
2021/11/18 06:52:30;;;;;;;20.17;11.75;;;6.20;89.00;;;;;;5074335;28;20068;-78
2021/11/18 06:54:56;;;;;;;18.33;11.52;;;6.30;89.20;;;;;;5074055;28;20053;-78
2021/11/18 06:57:22;;;;;;;15.63;10.32;;;6.30;89.10;;;;;;5073920;28;20021;-79
2021/11/18 06:59:48;;;;;;;17.98;10.88;;;6.30;89.10;;;;;;5074184;28;20024;-79
2021/11/18 07:02:15;;;;;;;18.83;11.25;;;6.30;89.10;;;;;;5074234;28;20024;-79
2021/11/18 07:04:43;;;;;;;18.77;10.15;;;6.30;89.20;;;;;;5073898;28;20027;-78
2021/11/18 07:07:11;;;;;;;19.65;10.13;;;6.30;89.10;;;;;;5072710;28;20053;-78
2021/11/18 07:09:37;;;;;;;14.55;9.25;;;6.30;89.10;;;;;;5072093;28;20036;-79
2021/11/18 07:12:08;;;;;;;15.95;9.63;;;6.40;89.00;;;;;;5073175;28;20021;-78
2021/11/18 07:14:36;;;;;;;17.88;9.35;;;6.40;88.90;;;;;;5073417;28;20532;-80
2021/11/18 07:17:04;;;;;;;15.40;9.23;;;6.40;88.90;;;;;;5073510;28;20119;-79
2021/11/18 07:19:30;;;;;;;13.88;8.68;;;6.40;88.90;;;;;;5071481;28;20036;-80
2021/11/18 07:21:56;;;;;;;13.73;9.13;;;6.50;88.80;;;;;;5071963;28;20059;-80
2021/11/18 07:24:21;;;;;;;15.85;9.15;;;6.50;88.60;;;;;;5072176;28;20025;-80
2021/11/18 07:26:47;;;;;;;16.05;10.13;;;6.60;88.50;;;;;;5072857;28;20465;-80
2021/11/18 07:29:13;;;;;;;17.42;9.38;;;6.50;88.30;;;;;;5073081;28;20488;-79
2021/11/18 07:31:39;;;;;;;17.05;10.85;;;6.50;88.20;;;;;;5073056;28;20524;-79
2021/11/18 07:34:05;;;;;;;17.92;10.85;;;6.60;88.10;;;;;;5072803;28;20128;-79
2021/11/18 07:36:31;;;;;;;16.70;9.60;;;6.70;88.10;;;;;;5072981;28;20501;-80
2021/11/18 07:38:56;;;;;;;14.43;9.15;;;6.60;87.90;;;;;;5071643;28;20024;-80
2021/11/18 07:41:22;;;;;;;17.67;10.02;;;6.70;88.50;;;;;;5073025;28;20020;-80
2021/11/18 07:43:48;;;;;;;17.35;10.27;;;6.70;87.60;;;;;;5072928;28;20025;-79
2021/11/18 07:46:16;;;;;;;16.52;9.95;;;6.70;87.60;;;;;;5072964;28;20040;-78
2021/11/18 07:48:44;;;;;;;18.20;9.93;;;6.70;87.60;;;;;;5072404;28;20044;-80
2021/11/18 07:51:11;;;;;;;18.17;10.40;;;6.80;87.40;;;;;;5073006;28;20028;-81
2021/11/18 07:53:37;;;;;;;15.75;9.82;;;6.80;87.00;;;;;;5073026;28;20032;-82
2021/11/18 07:56:04;;;;;;;15.00;8.18;;;6.80;86.70;;;;;;5072568;28;20100;-79
2021/11/18 07:58:30;;;;;;;12.88;8.52;;;6.80;86.60;;;;;;5072681;28;20040;-81
2021/11/18 08:00:55;;;;;;;13.18;7.80;;;6.80;86.50;;;;;;5072371;28;20477;-80
2021/11/18 08:03:23;;;;;;;13.05;7.75;;;6.80;86.50;;;;;;5072581;28;20021;-81
2021/11/18 08:05:49;;;;;;;15.02;8.00;;;6.80;86.50;;;;;;5072278;28;20025;-81
2021/11/18 08:08:14;;;;;;;13.93;7.78;;;6.80;86.30;;;;;;5072439;28;20495;-79
2021/11/18 08:10:40;;;;;;;14.60;8.30;;;6.90;86.30;;;;;;5072499;28;20119;-76
2021/11/18 08:13:06;;;;;;;12.88;8.15;;;6.80;86.00;;;;;;5072512;28;20458;-80
2021/11/18 08:15:33;;;;;;;14.85;8.55;;;6.90;86.00;;;;;;5072311;28;20016;-79
2021/11/18 08:17:58;;;;;;;34.80;8.70;;;6.90;86.50;;;;;;5072403;28;20091;-79
2021/11/18 08:20:25;;;;;;;18.77;9.85;;;7.30;92.50;;;;;;5072669;28;20078;-78
2021/11/18 08:22:52;;;;;;;13.55;8.45;;;7.80;93.10;;;;;;5072589;28;20026;-76
2021/11/18 08:25:20;;;;;;;16.98;8.77;;;8.30;91.20;;;;;;5072783;28;20025;-78
2021/11/18 08:27:46;;;;;;;15.50;9.02;;;8.40;87.50;;;;;;5071257;28;20465;-79
2021/11/18 08:30:18;;;;;;;28.00;10.77;;;8.60;86.00;;;;;;5072619;28;20045;-80
2021/11/18 08:32:45;;;;;;;20.92;9.32;;;8.90;83.40;;;;;;5071271;28;20017;-79
2021/11/18 08:35:12;;;;;;;13.73;8.38;;;9.10;81.60;;;;;;5072618;28;20024;-79
2021/11/18 08:37:38;;;;;;;18.27;8.73;;;9.40;80.60;;;;;;5072530;28;20431;-78
2021/11/18 08:40:05;;;;;;;11.43;8.07;;;9.50;78.50;;;;;;5072725;28;20107;-79
2021/11/18 08:42:31;;;;;;;13.10;8.30;;;9.50;77.10;;;;;;5072401;28;20056;-79
2021/11/18 08:44:57;;;;;;;13.50;8.30;;;9.40;76.20;;;;;;5072608;28;20056;-78
2021/11/18 08:47:23;;;;;;;11.82;7.68;;;9.10;76.20;;;;;;5074764;28;20016;-79
2021/11/18 08:49:50;;;;;;;13.05;8.35;;;8.90;76.90;;;;;;5076186;28;20075;-79
2021/11/18 08:52:20;;;;;;;14.63;8.63;;;8.70;77.70;;;;;;5076110;28;20063;-79
2021/11/18 08:54:49;;;;;;;11.77;7.30;;;8.60;78.30;;;;;;5076360;28;20025;-79
2021/11/18 08:57:16;;;;;;;14.65;8.52;;;8.50;78.90;;;;;;5074963;28;20477;-79
2021/11/18 08:59:43;;;;;;;14.60;9.40;;;8.40;79.20;;;;;;5076095;28;20035;-79
2021/11/18 09:02:13;;;;;;;14.05;8.88;;;8.30;79.70;;;;;;5076010;28;20020;-79
2021/11/18 09:04:39;;;;;;;14.73;8.30;;;8.20;79.90;;;;;;5075938;28;20484;-79
2021/11/18 09:07:05;;;;;;;14.40;8.30;;;8.20;80.20;;;;;;5075952;28;20032;-79
2021/11/18 09:09:30;;;;;;;12.30;7.28;;;8.10;80.40;;;;;;5075974;28;20035;-79
2021/11/18 09:11:58;;;;;;;13.18;7.65;;;8.10;80.60;;;;;;5076075;28;20507;-79
2021/11/18 09:14:27;;;;;;;9.93;6.28;;;8.10;80.60;;;;;;5074663;28;20438;-78
2021/11/18 09:16:54;;;;;;;12.05;7.45;;;8.10;81.60;;;;;;5075857;28;20031;-79
2021/11/18 09:19:26;;;;;;;11.75;7.25;;;8.10;80.80;;;;;;5075917;28;20107;-79
2021/11/18 09:21:53;;;;;;;10.38;6.53;;;8.10;80.60;;;;;;5075940;28;20043;-78
2021/11/18 09:24:26;;;;;;;13.40;6.57;;;8.10;80.50;;;;;;5075856;28;20381;-79
2021/11/18 09:26:57;;;;;;;11.65;5.90;;;8.20;80.50;;;;;;5075711;28;20020;-79
2021/11/18 09:29:26;;;;;;;11.07;6.60;;;8.20;80.30;;;;;;5075520;28;20443;-79
2021/11/18 09:31:52;;;;;;;10.60;6.95;;;8.30;80.10;;;;;;5075515;28;20112;-79
2021/11/18 09:34:17;;;;;;;7.40;4.63;;;8.30;79.90;;;;;;5075729;28;20119;-79
2021/11/18 09:36:44;;;;;;;8.30;4.90;;;8.30;79.30;;;;;;5075491;28;20060;-79
2021/11/18 09:39:11;;;;;;;8.43;5.35;;;8.30;79.30;;;;;;5074187;28;20039;-80
2021/11/18 09:42:02;;;;;;;6.53;4.10;;;8.30;79.30;;;;;;5075443;28;20047;-79
2021/11/18 09:45:07;;;;;;;8.27;4.47;;;8.40;79.60;;;;;;5074165;28;20029;-79
2021/11/18 09:48:02;;;;;;;6.13;3.97;;;8.40;79.10;;;;;;5075214;28;20023;-80
2021/11/18 09:50:48;;;;;;;6.13;4.03;;;8.30;78.60;;;;;;5075119;28;20082;-79
2021/11/18 09:53:41;;;;;;;4.72;3.13;;;8.30;78.70;;;;;;5075415;28;20031;-79
2021/11/18 09:56:24;;;;;;;6.50;4.47;;;8.30;78.60;;;;;;5075060;28;20098;-79
2021/11/18 09:59:12;;;;;;;6.38;4.43;;;8.30;78.60;;;;;;5072754;28;20025;-78
2021/11/18 10:01:56;;;;;;;6.65;3.17;;;8.30;78.40;;;;;;5075033;28;20020;-78
2021/11/18 10:04:29;;;;;;;7.00;4.88;;;8.30;77.90;;;;;;5075605;28;20135;-78
2021/11/18 10:07:00;;;;;;;4.55;2.88;;;8.30;77.90;;;;;;5075813;28;20082;-79
2021/11/18 10:09:53;;;;;;;3.75;2.38;;;8.30;77.70;;;;;;5075126;28;20036;-79
2021/11/18 10:12:36;;;;;;;1.83;1.45;;;8.20;77.60;;;;;;5075209;28;20489;-79
2021/11/18 10:15:11;;;;;;;2.13;1.48;;;8.20;77.20;;;;;;5075668;28;20033;-78
2021/11/18 10:17:52;;;;;;;2.67;1.75;;;8.20;78.00;;;;;;5074647;28;20035;-79
2021/11/18 10:20:28;;;;;;;4.03;2.05;;;8.20;76.80;;;;;;5074833;28;20079;-79
2021/11/18 10:23:03;;;;;;;3.25;2.08;;;8.20;76.80;;;;;;5073533;28;20021;-79
2021/11/18 10:25:33;;;;;;;;;;;8.20;77.00;;;;;;5075234;28;20071;-79
2021/11/18 10:28:20;;;;;;;3.13;2.08;;;8.30;77.50;;;;;;5075521;28;19934;-80
2021/11/18 10:31:17;;;;;;;3.78;2.28;;;8.30;77.40;;;;;;5080308;28;20033;-79
2021/11/18 10:34:02;;;;;;;3.00;1.38;;;8.40;77.10;;;;;;5040942;28;20041;-79
2021/11/18 10:36:40;;;;;;;1.40;1.27;;;8.50;76.60;;;;;;5074238;28;20155;-80
2021/11/18 10:39:22;;;;;;;2.30;1.80;;;8.50;77.40;;;;;;5073944;28;20468;-80
2021/11/18 10:42:28;;;;;;;1.75;1.40;;;8.50;75.90;;;;;;5073939;28;20020;-80
2021/11/18 10:44:56;;;;;;;2.37;1.23;;;8.60;75.60;;;;;;5073492;28;20392;-79
2021/11/18 10:47:34;;;;;;;2.33;1.52;;;8.60;75.70;;;;;;5072823;28;20376;-80
2021/11/18 10:50:07;;;;;;;3.00;1.75;;;8.70;75.70;;;;;;5073355;28;20154;-80
2021/11/18 10:52:41;;;;;;;2.85;1.40;;;8.70;75.30;;;;;;5074077;28;20020;-80
2021/11/18 10:55:12;;;;;;;3.05;1.65;;;8.80;75.10;;;;;;5073686;28;20017;-80
2021/11/18 10:57:52;;;;;;;1.85;1.60;;;8.90;74.70;;;;;;5073884;28;20477;-80
2021/11/18 11:00:23;;;;;;;2.17;1.63;;;8.90;74.20;;;;;;5073627;28;20427;-80
2021/11/18 11:02:49;;;;;;;6.70;2.20;;;9.00;74.20;;;;;;5073772;28;20020;-80
2021/11/18 11:05:39;;;;;;;1.83;1.40;;;9.00;73.50;;;;;;5072618;28;20038;-80
2021/11/18 11:08:24;;;;;;;2.63;1.52;;;9.10;72.40;;;;;;5073493;28;20039;-80
2021/11/18 11:10:56;;;;;;;2.72;1.50;;;9.10;72.50;;;;;;5073211;28;20069;-80
2021/11/18 11:13:50;;;;;;;2.00;1.38;;;9.00;72.30;;;;;;5072453;28;20035;-81
2021/11/18 11:16:38;;;;;;;3.80;2.20;;;9.00;72.40;;;;;;5071024;28;20020;-80
2021/11/18 11:19:19;;;;;;;1.77;1.20;;;9.00;73.00;;;;;;5073273;28;20400;-80
2021/11/18 11:22:17;;;;;;;2.22;1.50;;;8.90;72.30;;;;;;5073268;28;20017;-80
2021/11/18 11:25:18;;;;;;;2.42;1.92;;;8.90;72.30;;;;;;5062541;28;20055;-80
2021/11/18 11:27:46;;;;;;;2.55;1.85;;;9.00;73.10;;;;;;5072052;28;20020;-80
2021/11/18 11:30:20;;;;;;;1.50;1.40;;;9.20;73.10;;;;;;5073339;28;20068;-80
2021/11/18 11:33:12;;;;;;;3.72;1.88;;;9.30;72.80;;;;;;5072098;28;20055;-80
2021/11/18 11:36:01;;;;;;;1.30;1.10;;;9.40;72.40;;;;;;5073294;28;20089;-80
2021/11/18 11:39:04;;;;;;;1.30;1.13;;;9.40;72.20;;;;;;5072824;28;20039;-76
2021/11/18 11:41:53;;;;;;;1.80;1.05;;;9.30;71.10;;;;;;5073448;28;20103;-76
2021/11/18 11:44:33;;;;;;;0.82;0.82;;;9.20;71.60;;;;;;5073219;28;20048;-76
2021/11/18 11:47:19;;;;;;;0.80;0.70;;;9.20;71.60;;;;;;5072900;28;20485;-76
2021/11/18 11:50:01;;;;;;;0.75;0.70;;;9.30;71.10;;;;;;5072660;28;20076;-76
2021/11/18 11:52:46;;;;;;;0.55;0.52;;;9.50;70.30;;;;;;5072317;28;20400;-80
2021/11/18 11:55:43;;;;;;;0.70;0.70;;;9.60;70.20;;;;;;5072664;28;20021;-79
2021/11/18 11:58:17;;;;;;;1.65;0.80;;;9.70;69.90;;;;;;5072626;28;20032;-78
2021/11/18 12:01:13;;;;;;;3.80;0.90;;;10.00;69.70;;;;;;5072612;28;20035;-79
2021/11/18 12:03:54;;;;;;;1.02;0.43;;;10.00;69.10;;;;;;5072250;28;20020;-77
2021/11/18 12:06:26;;;;;;;0.50;0.40;;;10.10;68.20;;;;;;5072093;28;20020;-81
2021/11/18 12:09:24;;;;;;;1.35;0.68;;;10.00;67.10;;;;;;5061284;28;20059;-78
2021/11/18 12:12:03;;;;;;;1.48;0.70;;;10.00;66.70;;;;;;5052351;28;20108;-78
2021/11/18 12:14:35;;;;;;;0.68;0.68;;;10.10;65.90;;;;;;5052633;28;20059;-77
2021/11/18 12:17:18;;;;;;;1.75;1.00;;;9.80;66.50;;;;;;5052641;28;20096;-80
2021/11/18 12:20:03;;;;;;;0.95;0.75;;;9.60;67.50;;;;;;5051039;28;20025;-82
2021/11/18 12:22:37;;;;;;;0.75;0.70;;;9.50;67.60;;;;;;5054968;28;20100;-80
2021/11/18 12:25:22;;;;;;;2.20;1.08;;;9.40;68.30;;;;;;5056510;28;20040;-80
2021/11/18 12:27:59;;;;;;;0.82;0.70;;;9.30;69.10;;;;;;5056561;28;20075;-80
2021/11/18 12:30:32;;;;;;;1.00;0.70;;;9.20;69.00;;;;;;5056461;28;20412;-80
2021/11/18 12:33:01;;;;;;;1.30;1.00;;;9.10;68.30;;;;;;5056472;28;20021;-79
2021/11/18 12:35:31;;;;;;;1.20;0.90;;;9.20;68.90;;;;;;5055040;28;20476;-80
2021/11/18 12:38:30;;;;;;;1.13;1.02;;;9.40;68.30;;;;;;5056271;28;20025;-78
2021/11/18 12:41:14;;;;;;;2.90;0.93;;;9.80;67.60;;;;;;5060404;28;20373;-78
2021/11/18 12:43:48;;;;;;;1.33;1.10;;;10.10;66.30;;;;;;5069559;28;20495;-82
2021/11/18 12:46:13;;;;;;;1.23;0.80;;;10.50;65.50;;;;;;5054950;28;20082;-79
2021/11/18 12:48:51;;;;;;;0.82;0.65;;;10.70;64.70;;;;;;5056218;28;20095;-77
2021/11/18 12:51:41;;;;;;;1.52;0.88;;;10.90;64.10;;;;;;5056064;28;20033;-78
2021/11/18 12:54:09;;;;;;;0.90;0.90;;;11.00;63.60;;;;;;5054829;28;20067;-81
2021/11/18 12:57:03;;;;;;;0.85;0.70;;;11.20;63.40;;;;;;5056117;28;20380;-79
2021/11/18 12:59:39;;;;;;;3.35;2.53;;;11.30;61.90;;;;;;5029646;28;20029;-78
2021/11/18 13:02:10;;;;;;;5.22;2.30;;;11.50;62.00;;;;;;5054997;28;20020;-79
2021/11/18 13:04:57;;;;;;;1.90;1.70;;;11.60;61.40;;;;;;5056346;28;20090;-79